Time;durP1;ratioP1;P1;durP2;ratioP2;P2;SDS_P1;SDS_P2;PMS_P1;PMS_P2;Temp;Humidity;BMP_temperature;BMP_pressure;BME280_temperature;BME280_humidity;BME280_pressure;Samples;Min_cycle;Max_cycle;Signal;HPM_P1;HPM_P2
2023/04/14 00:01:24;;;;;;;;;;;;;;;21.27;48.88;100667.16;5094707;28;19947;-55
2023/04/14 00:03:50;;;;;;;;;;;;;;;20.68;50.39;100661.06;5094942;28;20019;-51
2023/04/14 00:06:16;;;;;;;;;;;;;;;20.63;49.83;100663.75;5095087;28;19920;-55
2023/04/14 00:08:41;;;;;;;;;;;;;;;20.59;49.61;100662.66;5095125;28;19948;-53
2023/04/14 00:11:07;;;;;;;;;;;;;;;20.78;48.43;100665.69;5094834;28;19951;-57
2023/04/14 00:13:32;;;;;;;;;;;;;;;20.28;49.62;100657.13;5095383;28;19916;-57
2023/04/14 00:15:58;;;;;;;;;;;;;;;20.70;48.99;100658.09;5093098;28;19955;-54
2023/04/14 00:18:24;;;;;;;;;;;;;;;20.70;48.45;100658.88;5094538;28;19936;-56
2023/04/14 00:20:49;;;;;;;;;;;;;;;19.78;49.97;100660.91;5093704;28;19920;-57
2023/04/14 00:23:14;;;;;;;;;;;;;;;19.63;50.42;100666.22;5092999;28;19916;-52
2023/04/14 00:25:40;;;;;;;;;;;;;;;19.56;50.40;100676.50;5093958;28;19920;-58
2023/04/14 00:28:05;;;;;;;;;;;;;;;19.58;51.12;100672.44;5094851;28;19955;-52
2023/04/14 00:30:30;;;;;;;;;;;;;;;19.62;51.24;100668.16;5094844;28;19920;-54
2023/04/14 00:32:56;;;;;;;;;;;;;;;19.74;51.42;100675.25;5093849;28;19924;-55
2023/04/14 00:35:23;;;;;;;;;;;;;;;19.91;50.25;100669.69;5094537;28;19920;-57
2023/04/14 00:37:50;;;;;;;;;;;;;;;19.53;51.82;100664.25;5094570;28;19916;-53
2023/04/14 00:40:15;;;;;;;;;;;;;;;19.48;51.58;100670.47;5092979;28;19946;-55
2023/04/14 00:42:45;;;;;;;;;;;;;;;19.70;51.10;100676.88;5093482;28;19934;-54
2023/04/14 00:45:11;;;;;;;;;;;;;;;18.80;52.42;100672.81;5094504;28;19928;-55
2023/04/14 00:47:38;;;;;;;;;;;;;;;18.67;52.62;100672.13;5094437;28;19916;-57
2023/04/14 00:50:04;;;;;;;;;;;;;;;18.82;52.47;100666.06;5090375;28;19936;-53
2023/04/14 00:52:30;;;;;;;;;;;;;;;18.86;52.24;100677.19;5094234;28;19955;-55
2023/04/14 00:54:56;;;;;;;;;;;;;;;18.74;52.61;100675.47;5094298;28;19916;-55
2023/04/14 00:57:22;;;;;;;;;;;;;;;19.02;51.88;100675.47;5090516;28;19974;-52
2023/04/14 00:59:47;;;;;;;;;;;;;;;19.29;51.17;100675.47;5094353;28;19920;-56
2023/04/14 01:02:15;;;;;;;;;;;;;;;19.02;51.31;100678.19;5090635;28;19923;-55
2023/04/14 01:04:41;;;;;;;;;;;;;;;18.81;51.69;100679.84;5090624;28;19917;-54
2023/04/14 01:07:07;;;;;;;;;;;;;;;18.81;52.09;100679.84;5093586;28;20363;-54
2023/04/14 01:09:32;;;;;;;;;;;;;;;19.40;51.70;100683.69;5093974;28;19920;-54
2023/04/14 01:11:57;;;;;;;;;;;;;;;20.59;48.66;100689.84;5092728;28;19923;-54
2023/04/14 01:14:42;;;;;;;;;;;;;;;18.19;52.35;100679.94;5093563;28;19924;-55
2023/04/14 01:17:10;;;;;;;;;;;;;;;19.63;50.02;100688.75;5090584;28;19916;-53
2023/04/14 01:19:54;;;;;;;;;;;;;;;19.94;47.61;100695.50;5093506;28;19917;-54
2023/04/14 01:22:21;;;;;;;;;;;;;;;18.68;50.09;100689.19;5093384;28;19920;-53
2023/04/14 01:25:05;;;;;;;;;;;;;;;18.34;50.80;100687.44;5090942;28;19917;-51
2023/04/14 01:27:50;;;;;;;;;;;;;;;19.40;48.13;100691.84;5093659;28;19934;-54
2023/04/14 01:30:34;;;;;;;;;;;;;;;18.88;49.31;100681.28;5093279;28;19922;-53
2023/04/14 01:33:02;;;;;;;;;;;;;;;18.51;49.97;100689.28;5091974;28;19916;-54
2023/04/14 01:35:33;;;;;;;;;;;;;;;18.11;51.37;100683.09;5090102;28;19944;-54
2023/04/14 01:38:02;;;;;;;;;;;;;;;18.28;50.84;100678.44;5090712;28;19917;-55
2023/04/14 01:40:29;;;;;;;;;;;;;;;17.89;51.71;100681.13;5091475;28;19917;-55
2023/04/14 01:42:58;;;;;;;;;;;;;;;18.05;51.38;100690.31;5086106;28;19951;-52
2023/04/14 01:45:25;;;;;;;;;;;;;;;18.10;51.38;100690.38;5091553;28;19927;-56
2023/04/14 01:47:50;;;;;;;;;;;;;;;18.25;50.85;100692.47;5093065;28;19920;-53
2023/04/14 01:50:17;;;;;;;;;;;;;;;18.15;51.37;100690.44;5091249;28;19940;-55
2023/04/14 01:52:49;;;;;;;;;;;;;;;18.16;51.27;100694.78;5088471;28;19927;-53
2023/04/14 01:55:15;;;;;;;;;;;;;;;18.42;50.48;100695.13;5088488;28;19924;-57
2023/04/14 01:57:43;;;;;;;;;;;;;;;18.27;51.25;100700.34;5090711;28;19922;-56
2023/04/14 02:00:09;;;;;;;;;;;;;;;18.07;51.58;100709.81;5090153;28;19924;-57
2023/04/14 02:02:40;;;;;;;;;;;;;;;17.59;53.04;100707.47;5092846;28;19916;-54
2023/04/14 02:05:07;;;;;;;;;;;;;;;17.83;52.29;100707.28;5092765;28;19916;-54
2023/04/14 02:07:33;;;;;;;;;;;;;;;18.19;51.35;100713.22;5093014;28;19916;-56
2023/04/14 02:09:59;;;;;;;;;;;;;;;19.00;49.70;100713.69;5086845;28;19939;-54
2023/04/14 02:12:25;;;;;;;;;;;;;;;18.68;50.08;100710.88;5092018;28;19920;-53
2023/04/14 02:14:52;;;;;;;;;;;;;;;18.28;50.71;100710.09;5087541;28;19956;-50
2023/04/14 02:17:20;;;;;;;;;;;;;;;18.04;50.94;100708.41;5091551;28;19927;-53
2023/04/14 02:19:46;;;;;;;;;;;;;;;17.85;51.47;100717.84;5085578;28;19944;-51
2023/04/14 02:22:11;;;;;;;;;;;;;;;23.85;45.91;100720.75;5091382;28;19991;-54
2023/04/14 02:24:37;;;;;;;;;;;;;;;18.15;50.40;100712.09;5094658;28;19916;-55
2023/04/14 02:27:03;;;;;;;;;;;;;;;18.56;49.88;100713.69;5079918;28;19985;-53
2023/04/14 02:29:30;;;;;;;;;;;;;;;18.00;51.67;100714.56;5096818;28;19917;-55
2023/04/14 02:31:58;;;;;;;;;;;;;;;18.86;50.01;100715.94;5095191;28;19927;-53
2023/04/14 02:34:26;;;;;;;;;;;;;;;19.31;48.78;100721.31;5097192;28;19917;-56
2023/04/14 02:36:54;;;;;;;;;;;;;;;18.47;49.89;100713.31;5094422;28;19916;-53
2023/04/14 02:39:21;;;;;;;;;;;;;;;18.67;49.81;100717.34;5095390;28;19916;-56
2023/04/14 02:41:52;;;;;;;;;;;;;;;18.67;49.59;100723.56;5093448;28;19928;-55
2023/04/14 02:44:27;;;;;;;;;;;;;;;17.57;51.48;100714.16;5057505;28;19989;-55
2023/04/14 02:47:02;;;;;;;;;;;;;;;17.58;52.28;100722.03;5059448;28;19917;-52
2023/04/14 02:49:28;;;;;;;;;;;;;;;17.89;51.23;100725.22;5052242;28;19923;-54
2023/04/14 02:51:55;;;;;;;;;;;;;;;17.99;51.22;100729.13;5059265;28;19917;-56
2023/04/14 02:54:21;;;;;;;;;;;;;;;18.47;50.23;100726.84;5048965;28;19948;-51
2023/04/14 02:56:47;;;;;;;;;;;;;;;18.30;50.62;100729.63;5057707;28;19917;-57
2023/04/14 02:59:13;;;;;;;;;;;;;;;18.52;50.77;100731.53;5052695;28;19923;-56
2023/04/14 03:01:55;;;;;;;;;;;;;;;18.85;50.03;100736.00;5059270;28;19917;-55
2023/04/14 03:04:22;;;;;;;;;;;;;;;18.15;51.01;100746.47;5068947;28;19921;-54
2023/04/14 03:06:48;;;;;;;;;;;;;;;17.74;51.69;100739.34;5052766;28;19928;-53
2023/04/14 03:09:15;;;;;;;;;;;;;;;17.33;52.56;100733.22;5058992;28;19917;-55
2023/04/14 03:11:41;;;;;;;;;;;;;;;16.86;53.45;100731.53;5076456;28;19924;-52
2023/04/14 03:14:07;;;;;;;;;;;;;;;17.23;52.92;100733.06;5076341;28;19999;-55
2023/04/14 03:16:33;;;;;;;;;;;;;;;16.89;53.29;100741.84;5068820;28;19929;-55
2023/04/14 03:19:00;;;;;;;;;;;;;;;17.09;53.39;100740.66;5059034;28;19923;-53
2023/04/14 03:21:27;;;;;;;;;;;;;;;17.26;52.92;100743.38;5059128;28;19962;-52
2023/04/14 03:23:54;;;;;;;;;;;;;;;17.76;51.45;100737.19;5059370;28;19924;-54
2023/04/14 03:26:23;;;;;;;;;;;;;;;17.42;52.23;100736.34;5058838;28;19920;-52
2023/04/14 03:28:49;;;;;;;;;;;;;;;17.86;50.97;100741.13;5058841;28;19939;-53
2023/04/14 03:31:17;;;;;;;;;;;;;;;18.30;50.02;100732.31;5058606;28;19921;-55
2023/04/14 03:33:55;;;;;;;;;;;;;;;18.37;49.97;100740.28;5058390;28;19932;-55
2023/04/14 03:36:21;;;;;;;;;;;;;;;17.91;50.57;100739.31;5074833;28;19929;-54
2023/04/14 03:38:48;;;;;;;;;;;;;;;17.50;51.73;100735.94;5058514;28;19925;-55
2023/04/14 03:41:16;;;;;;;;;;;;;;;17.72;51.55;100740.63;5075678;28;19932;-54
2023/04/14 03:43:44;;;;;;;;;;;;;;;18.09;51.00;100744.72;5092162;28;20024;-56
2023/04/14 03:46:13;;;;;;;;;;;;;;;18.40;50.46;100737.88;5094821;28;19938;-55
2023/04/14 03:48:43;;;;;;;;;;;;;;;18.57;50.26;100734.28;5095248;28;19947;-53
2023/04/14 03:51:12;;;;;;;;;;;;;;;18.26;50.22;100733.91;5095282;28;19927;-53
2023/04/14 03:53:40;;;;;;;;;;;;;;;17.91;50.90;100733.91;5095949;28;19983;-51
2023/04/14 03:56:07;;;;;;;;;;;;;;;17.22;52.77;100729.53;5094826;28;19983;-54
2023/04/14 03:58:33;;;;;;;;;;;;;;;16.87;53.53;100733.19;5096281;28;19920;-55
2023/04/14 04:01:01;;;;;;;;;;;;;;;16.72;55.04;100730.97;5095853;28;19927;-55
2023/04/14 04:03:27;;;;;;;;;;;;;;;17.22;53.67;100734.94;5094833;28;19925;-54
2023/04/14 04:05:53;;;;;;;;;;;;;;;17.10;53.62;100734.19;5094701;28;19916;-55
2023/04/14 04:08:19;;;;;;;;;;;;;;;16.60;55.50;100739.94;5094318;28;19960;-53
2023/04/14 04:10:47;;;;;;;;;;;;;;;16.59;55.75;100743.69;5095764;28;19921;-52
2023/04/14 04:13:16;;;;;;;;;;;;;;;16.69;56.10;100742.25;5094274;28;19924;-54
2023/04/14 04:15:44;;;;;;;;;;;;;;;16.86;56.02;100745.03;5093955;28;19917;-54
2023/04/14 04:18:14;;;;;;;;;;;;;;;17.07;54.73;100757.09;5095534;28;19923;-54
2023/04/14 04:20:40;;;;;;;;;;;;;;;17.46;53.51;100759.13;5095742;28;19916;-55
2023/04/14 04:23:07;;;;;;;;;;;;;;;16.91;53.74;100758.66;5093932;28;19975;-56
2023/04/14 04:25:35;;;;;;;;;;;;;;;16.36;55.20;100765.31;5094263;28;19923;-55
2023/04/14 04:28:09;;;;;;;;;;;;;;;16.74;54.46;100767.50;5092062;28;19921;-54
2023/04/14 04:30:37;;;;;;;;;;;;;;;16.89;54.23;100756.16;5094552;28;19986;-53
2023/04/14 04:33:03;;;;;;;;;;;;;;;16.92;53.68;100765.69;5093957;28;19965;-52
2023/04/14 04:35:30;;;;;;;;;;;;;;;16.75;54.24;100771.81;5094421;28;19916;-52
2023/04/14 04:37:57;;;;;;;;;;;;;;;16.97;53.66;100767.69;5093811;28;19956;-52
2023/04/14 04:40:22;;;;;;;;;;;;;;;17.20;53.05;100762.22;5094704;28;19939;-51
2023/04/14 04:42:50;;;;;;;;;;;;;;;17.88;51.36;100766.06;5083336;28;19921;-53
2023/04/14 04:45:23;;;;;;;;;;;;;;;18.08;50.77;100764.75;5046129;28;19916;-50
2023/04/14 04:47:49;;;;;;;;;;;;;;;18.27;50.12;100768.81;5056118;28;19916;-52
2023/04/14 04:50:14;;;;;;;;;;;;;;;18.02;50.35;100767.38;5074611;28;19928;-55
2023/04/14 04:52:40;;;;;;;;;;;;;;;18.14;50.19;100772.69;5067213;28;19920;-52
2023/04/14 04:55:06;;;;;;;;;;;;;;;18.31;49.66;100782.69;5074411;28;19916;-55
2023/04/14 04:57:31;;;;;;;;;;;;;;;18.02;50.05;100778.19;5074370;28;19943;-52
2023/04/14 04:59:57;;;;;;;;;;;;;;;16.70;52.74;100777.13;5079555;28;19931;-49
2023/04/14 05:02:23;;;;;;;;;;;;;;;16.02;55.40;100779.41;5077725;28;19917;-51
2023/04/14 05:04:48;;;;;;;;;;;;;;;15.70;56.76;100776.97;5074091;28;19913;-51
2023/04/14 05:07:14;;;;;;;;;;;;;;;15.74;57.26;100783.56;5075313;28;19947;-50
2023/04/14 05:09:39;;;;;;;;;;;;;;;16.12;56.48;100782.31;5073711;28;19921;-51
2023/04/14 05:12:05;;;;;;;;;;;;;;;16.68;55.15;100767.63;5080008;28;19916;-50
2023/04/14 05:14:30;;;;;;;;;;;;;;;16.71;55.20;100767.97;5081696;28;19917;-56
2023/04/14 05:16:56;;;;;;;;;;;;;;;16.59;54.77;100775.25;5078934;28;19919;-53
2023/04/14 05:19:21;;;;;;;;;;;;;;;16.58;55.95;100770.91;5079978;28;19960;-53
2023/04/14 05:21:47;;;;;;;;;;;;;;;17.44;54.13;100774.78;5069382;28;19936;-55
2023/04/14 05:24:12;;;;;;;;;;;;;;;17.67;52.56;100776.53;5074161;28;19921;-54
2023/04/14 05:26:38;;;;;;;;;;;;;;;17.31;54.57;100763.22;5065505;28;19917;-55
2023/04/14 05:29:03;;;;;;;;;;;;;;;17.63;53.03;100759.97;5073186;28;19932;-51
2023/04/14 05:31:28;;;;;;;;;;;;;;;17.63;53.69;100759.16;5070841;28;19959;-54
2023/04/14 05:33:55;;;;;;;;;;;;;;;16.94;54.89;100763.56;5078570;28;19922;-54
2023/04/14 05:36:20;;;;;;;;;;;;;;;17.15;55.96;100764.00;5076331;28;19924;-53
2023/04/14 05:38:46;;;;;;;;;;;;;;;16.32;57.71;100756.88;5077810;28;19917;-53
2023/04/14 05:41:12;;;;;;;;;;;;;;;16.90;56.08;100752.41;5066895;28;19953;-55
2023/04/14 05:43:37;;;;;;;;;;;;;;;17.02;56.13;100755.09;5073805;28;19921;-52
2023/04/14 05:46:03;;;;;;;;;;;;;;;17.57;54.57;100760.97;5071081;28;19929;-54
2023/04/14 05:48:29;;;;;;;;;;;;;;;16.92;55.87;100760.28;5072543;28;19940;-52
2023/04/14 05:50:55;;;;;;;;;;;;;;;16.49;58.06;100762.34;5072950;28;19928;-51
2023/04/14 05:53:22;;;;;;;;;;;;;;;17.44;55.65;100770.22;5081636;28;19921;-52
2023/04/14 05:55:49;;;;;;;;;;;;;;;17.84;54.16;100771.13;5078002;28;19916;-53
2023/04/14 05:58:15;;;;;;;;;;;;;;;18.10;53.58;100778.84;5075992;28;19951;-56
2023/04/14 06:00:41;;;;;;;;;;;;;;;17.72;54.15;100767.69;5077454;28;19921;-56
2023/04/14 06:03:07;;;;;;;;;;;;;;;18.36;52.56;100777.34;5076923;28;19924;-57
2023/04/14 06:05:33;;;;;;;;;;;;;;;18.40;52.26;100770.34;5075091;28;19923;-54
2023/04/14 06:07:59;;;;;;;;;;;;;;;18.13;52.79;100771.06;5079135;28;19917;-55
2023/04/14 06:10:24;;;;;;;;;;;;;;;17.99;53.27;100775.13;5077155;28;19955;-55
2023/04/14 06:12:50;;;;;;;;;;;;;;;18.02;53.45;100766.56;5077854;28;19940;-55
2023/04/14 06:15:15;;;;;;;;;;;;;;;17.91;53.84;100763.66;5074905;28;19976;-55
2023/04/14 06:17:41;;;;;;;;;;;;;;;18.19;53.66;100767.34;5079720;28;19927;-54
2023/04/14 06:20:06;;;;;;;;;;;;;;;18.42;53.02;100765.50;5072796;28;19924;-57
2023/04/14 06:22:32;;;;;;;;;;;;;;;18.34;53.35;100768.66;5073595;28;20320;-55
2023/04/14 06:24:57;;;;;;;;;;;;;;;18.35;53.69;100759.47;5073031;28;19927;-53
2023/04/14 06:27:26;;;;;;;;;;;;;;;17.82;54.74;100759.75;5060188;28;19917;-54
2023/04/14 06:29:52;;;;;;;;;;;;;;;18.47;53.87;100752.06;5073136;28;19921;-56
2023/04/14 06:32:18;;;;;;;;;;;;;;;18.36;54.45;100761.09;5073454;28;19917;-54
2023/04/14 06:34:44;;;;;;;;;;;;;;;18.66;54.30;100759.84;5070099;28;19917;-54
2023/04/14 06:37:10;;;;;;;;;;;;;;;18.70;54.50;100761.00;5078085;28;19917;-52
2023/04/14 06:39:35;;;;;;;;;;;;;;;18.75;55.04;100755.66;5065490;28;19916;-56
2023/04/14 06:42:01;;;;;;;;;;;;;;;18.79;55.01;100758.66;5064040;28;19943;-52
2023/04/14 06:44:27;;;;;;;;;;;;;;;18.60;54.87;100758.16;5080540;28;19962;-54
2023/04/14 06:46:52;;;;;;;;;;;;;;;18.11;55.55;100769.69;5087264;28;19917;-56
2023/04/14 06:49:18;;;;;;;;;;;;;;;19.52;52.79;100768.41;5093142;28;19967;-52
2023/04/14 06:51:44;;;;;;;;;;;;;;;18.76;54.58;100760.00;5081740;28;19921;-53
2023/04/14 06:54:10;;;;;;;;;;;;;;;18.83;54.70;100765.22;5081318;28;20009;-52
2023/04/14 06:56:35;;;;;;;;;;;;;;;19.09;53.91;100756.59;5085797;28;19935;-55
2023/04/14 06:59:01;;;;;;;;;;;;;;;19.60;52.78;100762.50;5087263;28;19948;-56
2023/04/14 07:01:26;;;;;;;;;;;;;;;19.70;52.06;100752.81;5086827;28;19920;-51
2023/04/14 07:03:52;;;;;;;;;;;;;;;19.25;53.39;100762.97;5079345;28;19921;-53
2023/04/14 07:06:17;;;;;;;;;;;;;;;18.99;54.60;100757.28;5086386;28;19924;-54
2023/04/14 07:08:43;;;;;;;;;;;;;;;19.48;54.07;100762.66;5083439;28;19916;-51
2023/04/14 07:11:10;;;;;;;;;;;;;;;18.78;55.26;100749.72;5088437;28;19952;-50
2023/04/14 07:13:36;;;;;;;;;;;;;;;18.18;55.40;100759.50;5094690;28;19916;-50
2023/04/14 07:16:02;;;;;;;;;;;;;;;18.41;55.75;100749.53;5085615;28;19911;-51
2023/04/14 07:18:31;;;;;;;;;;;;;;;18.13;56.56;100752.13;5084323;28;19917;-50
2023/04/14 07:21:00;;;;;;;;;;;;;;;18.74;56.82;100742.34;5078873;28;19948;-50
2023/04/14 07:23:26;;;;;;;;;;;;;;;18.77;57.17;100750.78;5092714;28;19916;-51
2023/04/14 07:26:00;;;;;;;;;;;;;;;19.13;57.57;100757.72;5093539;28;19912;-55
2023/04/14 07:28:26;;;;;;;;;;;;;;;20.19;54.83;100749.94;5078937;28;19917;-55
2023/04/14 07:30:52;;;;;;;;;;;;;;;20.23;55.10;100746.69;5081854;28;19928;-55
2023/04/14 07:33:18;;;;;;;;;;;;;;;20.13;55.31;100753.72;5075731;28;19924;-53
2023/04/14 07:35:44;;;;;;;;;;;;;;;19.99;55.31;100745.22;5080035;28;19916;-54
2023/04/14 07:38:09;;;;;;;;;;;;;;;20.51;53.03;100745.50;5093653;28;19979;-54
2023/04/14 07:40:35;;;;;;;;;;;;;;;19.25;56.01;100746.72;5084641;28;19977;-51
2023/04/14 07:43:01;;;;;;;;;;;;;;;20.57;53.69;100746.34;5082599;28;19934;-55
2023/04/14 07:45:26;;;;;;;;;;;;;;;19.42;55.28;100738.50;5062894;28;19939;-52
2023/04/14 07:47:52;;;;;;;;;;;;;;;19.90;54.95;100741.28;5073979;28;20036;-53
2023/04/14 07:50:17;;;;;;;;;;;;;;;20.02;53.93;100741.13;5071147;28;19949;-55
2023/04/14 07:52:43;;;;;;;;;;;;;;;19.46;53.78;100740.41;5074268;28;19924;-53
2023/04/14 07:55:08;;;;;;;;;;;;;;;19.97;53.39;100739.22;5074200;28;19960;-52
2023/04/14 07:57:34;;;;;;;;;;;;;;;20.69;52.28;100732.53;5076042;28;19917;-55
2023/04/14 07:59:59;;;;;;;;;;;;;;;20.70;52.15;100734.97;5071754;28;20315;-54
2023/04/14 08:02:24;;;;;;;;;;;;;;;20.63;52.66;100737.13;5067021;28;20015;-53
2023/04/14 08:04:50;;;;;;;;;;;;;;;20.42;53.17;100734.31;5077332;28;19983;-52
2023/04/14 08:07:16;;;;;;;;;;;;;;;21.13;51.99;100728.59;5082116;28;19939;-52
2023/04/14 08:09:42;;;;;;;;;;;;;;;22.11;50.30;100739.47;5076647;28;19921;-56
2023/04/14 08:12:08;;;;;;;;;;;;;;;21.87;49.67;100736.53;5078342;28;19975;-52
2023/04/14 08:14:33;;;;;;;;;;;;;;;21.82;48.74;100742.00;5065636;28;19928;-52
2023/04/14 08:16:59;;;;;;;;;;;;;;;22.11;48.17;100744.13;5069738;28;19916;-53
2023/04/14 08:19:24;;;;;;;;;;;;;;;22.20;48.03;100746.00;5073726;28;19935;-54
2023/04/14 08:21:51;;;;;;;;;;;;;;;21.14;49.88;100736.47;5072237;28;19932;-51
2023/04/14 08:24:16;;;;;;;;;;;;;;;21.58;48.73;100737.88;5065036;28;19960;-55
2023/04/14 08:26:42;;;;;;;;;;;;;;;22.12;47.69;100746.53;5072270;28;19917;-52
2023/04/14 08:29:07;;;;;;;;;;;;;;;22.57;46.90;100740.44;5078569;28;19971;-56
2023/04/14 08:31:33;;;;;;;;;;;;;;;22.20;46.15;100737.00;5074408;28;19921;-55
2023/04/14 08:33:59;;;;;;;;;;;;;;;22.92;45.41;100735.94;5067574;28;19917;-56
2023/04/14 08:36:26;;;;;;;;;;;;;;;22.90;45.98;100743.56;5074002;28;19958;-52
2023/04/14 08:38:52;;;;;;;;;;;;;;;22.51;44.69;100742.41;5065537;28;19976;-57
2023/04/14 08:41:18;;;;;;;;;;;;;;;22.66;45.73;100741.50;5057530;28;19928;-53
2023/04/14 08:43:45;;;;;;;;;;;;;;;21.78;46.06;100739.78;5070979;28;19909;-53
2023/04/14 08:46:10;;;;;;;;;;;;;;;22.95;44.99;100735.34;5073953;28;19939;-56
2023/04/14 08:48:37;;;;;;;;;;;;;;;23.52;44.13;100743.16;5069163;28;19924;-52
2023/04/14 08:51:09;;;;;;;;;;;;;;;24.00;43.92;100752.59;5071341;28;19921;-53
2023/04/14 08:53:41;;;;;;;;;;;;;;;22.09;45.05;100746.28;5071126;28;19928;-53
2023/04/14 08:56:08;;;;;;;;;;;;;;;22.75;45.08;100742.53;5073859;28;19912;-54
2023/04/14 08:58:33;;;;;;;;;;;;;;;23.23;43.94;100746.63;5071647;28;19924;-54
2023/04/14 09:00:59;;;;;;;;;;;;;;;23.78;42.12;100754.69;5073997;28;19913;-56
2023/04/14 09:03:25;;;;;;;;;;;;;;;23.62;43.09;100750.44;5073061;28;19917;-56
2023/04/14 09:05:51;;;;;;;;;;;;;;;22.78;43.76;100741.97;5071581;28;19986;-54
2023/04/14 09:08:16;;;;;;;;;;;;;;;23.48;44.29;100742.09;5072350;28;19984;-57
2023/04/14 09:10:41;;;;;;;;;;;;;;;24.44;42.34;100739.84;5072191;28;19952;-54
2023/04/14 09:13:07;;;;;;;;;;;;;;;24.33;42.33;100739.16;5072525;28;19924;-55
2023/04/14 09:15:34;;;;;;;;;;;;;;;24.75;41.97;100739.47;5073736;28;19924;-56
2023/04/14 09:18:00;;;;;;;;;;;;;;;25.72;41.06;100735.56;5070972;28;19987;-58
2023/04/14 09:20:25;;;;;;;;;;;;;;;25.09;40.49;100737.63;5073718;28;19927;-55
2023/04/14 09:22:52;;;;;;;;;;;;;;;25.56;40.62;100738.56;5067308;28;19921;-55
2023/04/14 09:25:18;;;;;;;;;;;;;;;26.46;39.05;100729.25;5073418;28;19924;-54
2023/04/14 09:27:44;;;;;;;;;;;;;;;26.39;38.10;100739.00;5068162;28;19963;-56
2023/04/14 09:30:10;;;;;;;;;;;;;;;27.38;37.23;100740.41;5072827;28;19920;-55
2023/04/14 09:32:37;;;;;;;;;;;;;;;27.61;35.37;100744.78;5070778;28;19997;-56
2023/04/14 09:35:02;;;;;;;;;;;;;;;27.38;35.23;100737.66;5068130;28;19929;-56
2023/04/14 09:37:40;;;;;;;;;;;;;;;27.94;34.63;100740.13;5071760;28;20750;-57
2023/04/14 09:40:07;;;;;;;;;;;;;;;28.40;34.77;100749.03;5072458;28;19916;-57
2023/04/14 09:42:39;;;;;;;;;;;;;;;27.56;35.39;100742.19;5073139;28;19928;-57
2023/04/14 09:45:05;;;;;;;;;;;;;;;29.15;33.59;100749.00;5071633;28;19917;-61
2023/04/14 09:47:30;;;;;;;;;;;;;;;29.59;32.38;100734.38;5070566;28;19978;-56
2023/04/14 09:49:58;;;;;;;;;;;;;;;26.75;33.57;100730.03;5072000;28;19921;-55
2023/04/14 09:52:40;;;;;;;;;;;;;;;27.45;33.82;100724.28;5068251;28;19917;-56
2023/04/14 09:55:09;;;;;;;;;;;;;;;28.48;32.90;100729.00;5072266;28;19916;-56
2023/04/14 09:57:36;;;;;;;;;;;;;;;28.65;32.19;100736.47;5068987;28;19923;-55
2023/04/14 10:00:04;;;;;;;;;;;;;;;28.91;31.82;100742.03;5068932;28;20012;-57
2023/04/14 10:02:29;;;;;;;;;;;;;;;28.81;31.63;100730.53;5071054;28;19923;-57
2023/04/14 10:05:02;;;;;;;;;;;;;;;29.30;31.75;100720.19;5067415;28;19921;-57
2023/04/14 10:07:28;;;;;;;;;;;;;;;28.79;31.46;100719.00;5067440;28;19932;-55
2023/04/14 10:09:53;;;;;;;;;;;;;;;30.21;29.64;100717.63;5070507;28;19920;-59
2023/04/14 10:12:20;;;;;;;;;;;;;;;29.07;30.72;100725.03;5072750;28;19916;-53
2023/04/14 10:14:45;;;;;;;;;;;;;;;28.43;30.98;100713.47;5070557;28;19952;-54
2023/04/14 10:17:12;;;;;;;;;;;;;;;28.58;30.65;100703.13;5069498;28;19916;-57
2023/04/14 10:19:38;;;;;;;;;;;;;;;28.45;30.43;100716.72;5070049;28;19984;-57
2023/04/14 10:22:06;;;;;;;;;;;;;;;29.58;30.31;100705.22;5067279;28;19927;-55
2023/04/14 10:24:32;;;;;;;;;;;;;;;29.34;29.46;100696.34;5071692;28;19917;-58
2023/04/14 10:27:01;;;;;;;;;;;;;;;29.44;29.82;100699.91;5072170;28;19917;-54
2023/04/14 10:29:27;;;;;;;;;;;;;;;30.56;29.28;100709.16;5067788;28;19971;-56
2023/04/14 10:31:59;;;;;;;;;;;;;;;30.21;28.66;100709.34;5070180;28;19921;-57
2023/04/14 10:34:24;;;;;;;;;;;;;;;30.75;28.43;100714.22;5069023;28;20377;-56
2023/04/14 10:36:50;;;;;;;;;;;;;;;30.35;28.79;100698.13;5067559;28;19917;-58
2023/04/14 10:39:21;;;;;;;;;;;;;;;30.60;28.33;100699.06;5071516;28;19916;-54
2023/04/14 10:41:47;;;;;;;;;;;;;;;30.37;28.36;100693.06;5070498;28;19981;-56
2023/04/14 10:44:25;;;;;;;;;;;;;;;31.90;26.80;100702.88;5071962;28;19920;-56
2023/04/14 10:46:52;;;;;;;;;;;;;;;31.34;26.89;100712.44;5074207;28;19921;-56
2023/04/14 10:49:21;;;;;;;;;;;;;;;31.78;27.34;100692.63;5070031;28;19916;-58
2023/04/14 10:51:47;;;;;;;;;;;;;;;30.98;26.89;100698.13;5074941;28;19921;-58
2023/04/14 10:54:19;;;;;;;;;;;;;;;32.46;26.25;100696.75;5075013;28;20662;-56
2023/04/14 10:57:05;;;;;;;;;;;;;;;33.27;25.72;100695.13;5075337;28;19976;-58
2023/04/14 10:59:30;;;;;;;;;;;;;;;31.13;27.03;100696.69;5074682;28;19988;-58
2023/04/14 11:01:56;;;;;;;;;;;;;;;31.63;25.96;100685.00;5075965;28;19923;-55
2023/04/14 11:04:22;;;;;;;;;;;;;;;30.27;27.29;100691.50;5076593;28;19956;-58
2023/04/14 11:06:49;;;;;;;;;;;;;;;31.91;26.23;100690.69;5076794;28;19943;-58
2023/04/14 11:09:26;;;;;;;;;;;;;;;35.27;24.44;100688.53;5074943;28;20004;-58
2023/04/14 11:11:53;;;;;;;;;;;;;;;32.40;25.13;100687.09;5074012;28;19925;-58
2023/04/14 11:14:24;;;;;;;;;;;;;;;32.54;25.04;100685.94;5071312;28;19921;-58
2023/04/14 11:16:50;;;;;;;;;;;;;;;31.57;25.16;100685.19;5073157;28;19917;-56
2023/04/14 11:19:16;;;;;;;;;;;;;;;31.21;25.13;100684.00;5075696;28;19924;-57
2023/04/14 11:21:52;;;;;;;;;;;;;;;32.53;24.51;100685.13;5058459;28;19924;-58
2023/04/14 11:24:21;;;;;;;;;;;;;;;33.29;24.21;100687.25;5075200;28;19917;-58
2023/04/14 11:26:47;;;;;;;;;;;;;;;32.94;24.54;100684.31;5075178;28;19923;-56
2023/04/14 11:29:12;;;;;;;;;;;;;;;34.06;23.45;100686.41;5075912;28;19921;-56
2023/04/14 11:31:38;;;;;;;;;;;;;;;32.68;23.88;100678.03;5075577;28;19921;-59
2023/04/14 11:34:07;;;;;;;;;;;;;;;32.10;24.33;100672.69;5071158;28;19927;-60
2023/04/14 11:36:38;;;;;;;;;;;;;;;33.49;23.85;100667.19;5075681;28;19924;-60
2023/04/14 11:39:05;;;;;;;;;;;;;;;34.36;23.25;100681.13;5076444;28;19920;-59
2023/04/14 11:41:31;;;;;;;;;;;;;;;34.39;23.71;100677.66;5065608;28;19941;-58
2023/04/14 11:43:57;;;;;;;;;;;;;;;34.61;23.19;100678.13;5100806;28;19916;-58
2023/04/14 11:46:25;;;;;;;;;;;;;;;35.16;22.53;100677.22;5096627;28;21491;-57
2023/04/14 11:48:54;;;;;;;;;;;;;;;34.93;22.51;100674.38;5091750;28;19942;-59
2023/04/14 11:51:19;;;;;;;;;;;;;;;34.50;21.96;100675.13;5086390;28;20024;-59
2023/04/14 11:53:45;;;;;;;;;;;;;;;34.50;22.26;100679.88;5085841;28;19931;-59
2023/04/14 11:56:11;;;;;;;;;;;;;;;35.53;22.37;100679.50;5078064;28;19987;-59
2023/04/14 11:58:37;;;;;;;;;;;;;;;35.15;22.51;100678.41;5096167;28;19928;-59
2023/04/14 12:01:02;;;;;;;;;;;;;;;37.22;21.16;100681.38;5096881;28;20418;-59
2023/04/14 12:03:29;;;;;;;;;;;;;;;37.27;20.30;100681.84;5093429;28;19916;-59
2023/04/14 12:06:00;;;;;;;;;;;;;;;38.36;19.19;100682.66;5107355;28;19938;-58
2023/04/14 12:08:27;;;;;;;;;;;;;;;37.84;19.97;100664.00;5099626;28;19923;-62
2023/04/14 12:10:55;;;;;;;;;;;;;;;35.73;20.19;100665.50;5095323;28;19952;-60
2023/04/14 12:13:20;;;;;;;;;;;;;;;34.89;20.85;100658.44;5097372;28;19926;-60
2023/04/14 12:15:46;;;;;;;;;;;;;;;35.41;20.57;100665.75;5101404;28;19916;-58
2023/04/14 12:18:15;;;;;;;;;;;;;;;35.29;20.19;100662.00;5100457;28;19927;-59
2023/04/14 12:20:43;;;;;;;;;;;;;;;34.54;21.04;100658.53;5097120;28;19966;-58
2023/04/14 12:23:08;;;;;;;;;;;;;;;36.13;20.45;100658.59;5092204;28;19923;-59
2023/04/14 12:25:34;;;;;;;;;;;;;;;37.34;19.82;100658.00;5090835;28;19916;-59
2023/04/14 12:28:05;;;;;;;;;;;;;;;38.35;19.82;100658.75;5098147;28;19966;-59
2023/04/14 12:30:33;;;;;;;;;;;;;;;38.15;19.31;100653.44;5094961;28;19920;-59
2023/04/14 12:32:58;;;;;;;;;;;;;;;37.51;19.74;100651.81;5095206;28;19916;-59
2023/04/14 12:35:24;;;;;;;;;;;;;;;37.21;19.68;100654.69;5093387;28;20230;-59